Time;durP1;ratioP1;P1;durP2;ratioP2;P2;SDS_P1;SDS_P2;PMS_P1;PMS_P2;Temp;Humidity;BMP_temperature;BMP_pressure;BME280_temperature;BME280_humidity;BME280_pressure;Samples;Min_cycle;Max_cycle;Signal;HPM_P1;HPM_P2
2022/07/22 00:00:13;;;;;;;5.07;2.88;;;16.70;99.90;;;;;;5146510;27;21004;-65
2022/07/22 00:02:39;;;;;;;6.53;3.53;;;16.80;99.90;;;;;;5143105;27;20116;-65
2022/07/22 00:05:06;;;;;;;10.88;3.05;;;16.70;99.90;;;;;;5142419;27;20034;-65
2022/07/22 00:07:32;;;;;;;6.70;2.95;;;16.70;99.90;;;;;;5139613;27;20042;-65
2022/07/22 00:09:58;;;;;;;9.88;4.22;;;16.70;99.90;;;;;;5143602;27;20046;-65
2022/07/22 00:12:23;;;;;;;7.88;3.28;;;16.60;99.90;;;;;;5123033;27;20053;-65
2022/07/22 00:14:49;;;;;;;11.70;4.35;;;16.60;99.90;;;;;;5140444;27;20035;-65
2022/07/22 00:17:15;;;;;;;15.82;5.00;;;16.60;99.90;;;;;;5147690;27;20038;-65
2022/07/22 00:19:41;;;;;;;7.90;4.57;;;16.60;99.90;;;;;;5139841;27;20034;-65
2022/07/22 00:22:06;;;;;;;10.65;4.22;;;16.60;99.90;;;;;;5138911;27;20046;-65
2022/07/22 00:24:33;;;;;;;11.57;5.10;;;16.60;99.90;;;;;;5142585;27;20058;-65
2022/07/22 00:26:59;;;;;;;18.52;5.22;;;16.60;99.90;;;;;;5140923;27;20042;-65
2022/07/22 00:29:25;;;;;;;10.10;5.00;;;16.60;99.90;;;;;;5144597;27;20046;-65
2022/07/22 00:31:50;;;;;;;13.45;4.88;;;16.60;99.90;;;;;;5144214;27;20035;-65
2022/07/22 00:34:17;;;;;;;9.73;5.15;;;16.60;99.90;;;;;;5135139;27;20046;-65
2022/07/22 00:36:43;;;;;;;13.13;5.07;;;16.60;99.90;;;;;;5147573;27;20034;-65
2022/07/22 00:39:08;;;;;;;9.20;4.38;;;16.60;99.90;;;;;;5143147;27;20047;-65
2022/07/22 00:41:34;;;;;;;10.82;5.50;;;16.60;99.90;;;;;;5141842;27;20045;-65
2022/07/22 00:44:02;;;;;;;11.65;5.65;;;16.60;99.90;;;;;;5145496;27;20043;-65
2022/07/22 00:46:30;;;;;;;13.00;5.72;;;16.60;99.90;;;;;;5136680;27;20547;-65
2022/07/22 00:48:57;;;;;;;14.90;5.53;;;16.70;99.90;;;;;;5137725;27;20770;-65
2022/07/22 00:51:25;;;;;;;10.80;4.57;;;16.60;99.90;;;;;;5141757;27;20043;-65
2022/07/22 00:53:52;;;;;;;15.00;6.18;;;16.70;99.90;;;;;;5139502;27;20050;-65
2022/07/22 00:56:19;;;;;;;11.27;5.93;;;16.70;99.90;;;;;;5145487;27;20041;-65
2022/07/22 00:58:46;;;;;;;14.32;6.78;;;16.60;99.90;;;;;;5138205;27;20978;-65
2022/07/22 01:01:12;;;;;;;10.68;6.07;;;16.60;99.90;;;;;;5141501;27;20041;-65
2022/07/22 01:03:39;;;;;;;10.75;5.95;;;16.60;99.90;;;;;;5141631;27;20038;-65
2022/07/22 01:06:05;;;;;;;11.50;6.35;;;16.60;99.90;;;;;;5145917;27;20103;-65
2022/07/22 01:08:32;;;;;;;12.52;6.38;;;16.60;99.90;;;;;;5146881;27;20035;-65
2022/07/22 01:11:15;;;;;;;11.27;6.97;;;16.60;99.90;;;;;;5144632;27;20039;-65
2022/07/22 01:13:41;;;;;;;14.80;6.40;;;16.60;99.90;;;;;;5138024;27;20121;-65
2022/07/22 01:16:08;;;;;;;12.65;6.25;;;16.60;99.90;;;;;;5131763;27;20062;-65
2022/07/22 01:18:36;;;;;;;17.58;6.75;;;16.50;99.90;;;;;;5141955;27;20095;-65
2022/07/22 01:21:02;;;;;;;15.57;7.13;;;16.60;99.90;;;;;;5146227;27;20125;-66
2022/07/22 01:23:27;;;;;;;15.25;6.78;;;16.50;99.90;;;;;;5138536;27;20154;-66
2022/07/22 01:25:53;;;;;;;19.70;8.50;;;16.50;99.90;;;;;;5136653;27;20551;-66
2022/07/22 01:28:21;;;;;;;12.05;6.60;;;16.50;99.90;;;;;;5134008;27;20043;-65
2022/07/22 01:30:46;;;;;;;14.50;6.65;;;16.50;99.90;;;;;;5135011;27;20117;-66
2022/07/22 01:33:12;;;;;;;16.60;6.72;;;16.50;99.90;;;;;;5137814;27;20473;-65
2022/07/22 01:35:38;;;;;;;23.52;8.25;;;16.50;99.90;;;;;;5145155;27;20558;-65
2022/07/22 01:38:03;;;;;;;12.80;6.70;;;16.50;99.90;;;;;;5144311;27;20038;-65
2022/07/22 01:40:29;;;;;;;17.10;7.47;;;16.50;99.90;;;;;;5140812;27;20053;-65
2022/07/22 01:42:55;;;;;;;23.35;8.18;;;16.50;99.90;;;;;;5137682;27;20126;-65
2022/07/22 01:45:20;;;;;;;15.85;6.22;;;16.50;99.90;;;;;;5137927;27;20046;-66
2022/07/22 01:47:46;;;;;;;12.90;6.68;;;16.50;99.90;;;;;;5150586;27;20558;-66
2022/07/22 01:50:13;;;;;;;12.93;6.40;;;16.50;99.90;;;;;;5147796;27;20478;-66
2022/07/22 01:52:39;;;;;;;18.58;7.03;;;16.50;99.90;;;;;;5140690;27;20035;-66
2022/07/22 01:55:09;;;;;;;18.80;6.50;;;16.40;99.90;;;;;;5145888;27;20031;-65
2022/07/22 01:57:38;;;;;;;12.32;5.82;;;16.40;99.90;;;;;;5144170;27;20499;-65
2022/07/22 02:00:07;;;;;;;17.83;6.40;;;16.40;99.90;;;;;;5133559;27;20058;-66
2022/07/22 02:02:33;;;;;;;13.13;6.13;;;16.30;99.90;;;;;;5134025;27;20078;-66
2022/07/22 02:04:58;;;;;;;16.63;6.57;;;16.30;99.90;;;;;;5134448;27;20062;-66
2022/07/22 02:07:25;;;;;;;10.52;5.80;;;16.30;99.90;;;;;;5147117;27;20163;-66
2022/07/22 02:09:52;;;;;;;13.60;5.70;;;16.30;99.90;;;;;;5125019;27;20050;-66
2022/07/22 02:12:18;;;;;;;22.38;7.07;;;16.30;99.90;;;;;;5146227;27;20052;-66
2022/07/22 02:14:43;;;;;;;15.65;6.65;;;16.30;99.90;;;;;;5150939;27;20042;-66
2022/07/22 02:17:09;;;;;;;18.92;5.15;;;16.20;99.90;;;;;;5143566;27;20042;-66
2022/07/22 02:19:35;;;;;;;13.23;5.50;;;16.30;99.90;;;;;;5145350;27;20103;-66
2022/07/22 02:22:00;;;;;;;21.60;6.40;;;16.30;99.90;;;;;;5146770;27;20047;-66
2022/07/22 02:24:26;;;;;;;8.77;4.75;;;16.30;99.90;;;;;;5136691;27;20042;-65
2022/07/22 02:26:52;;;;;;;20.63;5.70;;;16.30;99.90;;;;;;5143247;27;20074;-66
2022/07/22 02:29:17;;;;;;;12.80;6.05;;;16.30;99.90;;;;;;5139585;27;20062;-66
2022/07/22 02:31:43;;;;;;;21.65;7.45;;;16.30;99.90;;;;;;5150202;27;20038;-65
2022/07/22 02:34:10;;;;;;;18.40;6.63;;;16.20;99.90;;;;;;5135327;27;20081;-66
2022/07/22 02:36:36;;;;;;;14.45;5.88;;;16.30;99.90;;;;;;5137982;27;20111;-66
2022/07/22 02:39:02;;;;;;;13.82;6.35;;;16.30;99.90;;;;;;5139977;27;20106;-66
2022/07/22 02:41:28;;;;;;;11.18;5.07;;;16.30;99.90;;;;;;5147460;27;20099;-66
2022/07/22 02:43:54;;;;;;;16.55;6.03;;;16.30;99.90;;;;;;5147627;27;20043;-66
2022/07/22 02:46:24;;;;;;;10.60;5.85;;;16.30;99.90;;;;;;5141667;27;20418;-66
2022/07/22 02:48:50;;;;;;;17.77;5.70;;;16.20;99.90;;;;;;5146434;27;20596;-66
2022/07/22 02:51:16;;;;;;;13.27;6.22;;;16.20;99.90;;;;;;5149736;27;20069;-66
2022/07/22 02:53:42;;;;;;;13.05;6.28;;;16.30;99.90;;;;;;5136762;27;20059;-66
2022/07/22 02:56:08;;;;;;;10.13;5.22;;;16.30;99.90;;;;;;5136753;27;20080;-66
2022/07/22 02:58:34;;;;;;;23.83;5.57;;;16.30;99.90;;;;;;5136837;27;20130;-66
2022/07/22 03:01:00;;;;;;;19.02;6.18;;;16.30;99.90;;;;;;5149178;27;20052;-66
2022/07/22 03:03:26;;;;;;;10.77;5.68;;;16.20;99.90;;;;;;5146433;27;20055;-66
2022/07/22 03:05:52;;;;;;;20.50;5.90;;;16.30;99.90;;;;;;5141142;27;20035;-66
2022/07/22 03:08:17;;;;;;;13.60;5.07;;;16.20;99.90;;;;;;5106440;27;20046;-66
2022/07/22 03:10:43;;;;;;;10.35;4.75;;;16.20;99.90;;;;;;5144177;27;20154;-66
2022/07/22 03:13:09;;;;;;;9.93;4.45;;;16.20;99.90;;;;;;5142380;27;20035;-66
2022/07/22 03:15:34;;;;;;;14.27;5.88;;;16.20;99.90;;;;;;5143679;27;20074;-66
2022/07/22 03:18:00;;;;;;;15.02;4.82;;;16.10;99.90;;;;;;5137251;27;20035;-66
2022/07/22 03:20:26;;;;;;;9.25;4.82;;;16.10;99.90;;;;;;5141150;27;20405;-66
2022/07/22 03:22:52;;;;;;;7.85;3.58;;;16.20;99.90;;;;;;5148218;27;20042;-66
2022/07/22 03:25:18;;;;;;;14.55;4.75;;;16.20;99.90;;;;;;5141751;27;20038;-66
2022/07/22 03:27:44;;;;;;;11.30;4.88;;;16.20;99.90;;;;;;5139483;27;21475;-66
2022/07/22 03:30:11;;;;;;;9.15;4.43;;;16.10;99.90;;;;;;5147121;27;20041;-66
2022/07/22 03:32:36;;;;;;;16.13;4.47;;;16.10;99.90;;;;;;5125972;27;20075;-66
2022/07/22 03:35:02;;;;;;;11.25;4.18;;;16.10;99.90;;;;;;5124366;27;20174;-66
2022/07/22 03:37:28;;;;;;;9.20;4.65;;;16.10;99.90;;;;;;5139092;27;20095;-66
2022/07/22 03:39:55;;;;;;;10.57;4.72;;;16.10;99.90;;;;;;5134028;27;20588;-66
2022/07/22 03:42:20;;;;;;;13.68;5.15;;;16.20;99.90;;;;;;5148339;27;20523;-66
2022/07/22 03:44:46;;;;;;;7.20;4.20;;;16.10;99.90;;;;;;5134748;27;20063;-66
2022/07/22 03:47:17;;;;;;;18.35;5.05;;;16.10;99.90;;;;;;5138977;27;20050;-65
2022/07/22 03:49:42;;;;;;;14.27;3.85;;;16.10;99.90;;;;;;5133330;27;20046;-66
2022/07/22 03:52:08;;;;;;;9.40;3.97;;;16.10;99.90;;;;;;5146516;27;20035;-66
2022/07/22 03:54:34;;;;;;;6.60;3.83;;;16.10;99.90;;;;;;5148415;27;20039;-66
2022/07/22 03:56:59;;;;;;;13.98;4.28;;;16.10;99.90;;;;;;5136053;27;20180;-65
2022/07/22 03:59:25;;;;;;;11.43;4.10;;;16.10;99.90;;;;;;5139137;27;20042;-65
2022/07/22 04:01:50;;;;;;;12.55;5.03;;;16.10;99.90;;;;;;5138069;27;20130;-65
2022/07/22 04:04:16;;;;;;;14.52;4.45;;;16.10;99.90;;;;;;5140406;27;20034;-65
2022/07/22 04:06:42;;;;;;;8.82;3.78;;;16.10;99.90;;;;;;5144445;27;20035;-65
2022/07/22 04:09:07;;;;;;;4.75;3.15;;;16.10;99.90;;;;;;5140669;27;20092;-66
2022/07/22 04:11:33;;;;;;;9.18;3.92;;;16.10;99.90;;;;;;5140181;27;20437;-65
2022/07/22 04:14:00;;;;;;;7.32;3.95;;;16.10;99.90;;;;;;5139346;27;20448;-66
2022/07/22 04:16:25;;;;;;;6.68;4.40;;;16.10;99.90;;;;;;5145700;27;20127;-65
2022/07/22 04:18:51;;;;;;;18.58;4.25;;;16.10;99.90;;;;;;5143930;27;20043;-65
2022/07/22 04:21:17;;;;;;;11.48;3.88;;;16.10;99.90;;;;;;5114955;27;20104;-65
2022/07/22 04:23:43;;;;;;;10.35;4.40;;;16.10;99.90;;;;;;5118777;27;20050;-66
2022/07/22 04:26:08;;;;;;;7.28;3.83;;;16.10;99.90;;;;;;5118584;27;20050;-65
2022/07/22 04:28:34;;;;;;;11.40;4.00;;;16.10;99.90;;;;;;5134628;27;20074;-66
2022/07/22 04:31:02;;;;;;;5.85;3.35;;;16.10;99.90;;;;;;5115310;27;20092;-66
2022/07/22 04:33:27;;;;;;;10.15;4.10;;;16.10;99.90;;;;;;5143873;27;20043;-65
2022/07/22 04:35:53;;;;;;;13.07;3.80;;;16.10;99.90;;;;;;5147496;27;20047;-65
2022/07/22 04:38:19;;;;;;;10.90;4.38;;;16.10;99.90;;;;;;5136859;27;20079;-65
2022/07/22 04:40:44;;;;;;;8.27;4.03;;;16.10;99.90;;;;;;5124332;27;20092;-65
2022/07/22 04:43:10;;;;;;;18.10;4.85;;;16.10;99.90;;;;;;5139813;27;20045;-65
2022/07/22 04:45:36;;;;;;;13.45;4.53;;;16.10;99.90;;;;;;5142957;27;20045;-65
2022/07/22 04:48:01;;;;;;;11.48;3.42;;;16.10;99.90;;;;;;5144349;27;20035;-65
2022/07/22 04:50:27;;;;;;;15.27;3.90;;;16.10;99.90;;;;;;5141302;27;20072;-65
2022/07/22 04:52:55;;;;;;;7.18;3.75;;;16.10;99.90;;;;;;5123999;27;20557;-65
2022/07/22 04:55:20;;;;;;;9.77;4.30;;;16.10;99.90;;;;;;5137013;27;20039;-65
2022/07/22 04:57:46;;;;;;;11.27;4.88;;;16.10;99.90;;;;;;5142532;27;20069;-65
2022/07/22 05:00:13;;;;;;;13.82;4.18;;;16.10;99.90;;;;;;5132903;27;20043;-65
2022/07/22 05:02:38;;;;;;;9.52;3.83;;;16.10;99.90;;;;;;5142580;27;20171;-65
2022/07/22 05:05:04;;;;;;;16.48;3.47;;;16.10;99.90;;;;;;5140627;27;20395;-65
2022/07/22 05:07:30;;;;;;;9.57;4.05;;;16.10;99.90;;;;;;5138265;27;20582;-65
2022/07/22 05:09:55;;;;;;;11.40;4.28;;;16.10;99.90;;;;;;5134635;27;20042;-65
2022/07/22 05:12:21;;;;;;;6.13;3.50;;;16.10;99.90;;;;;;5144957;27;20074;-66
2022/07/22 05:14:47;;;;;;;10.57;4.03;;;16.20;99.90;;;;;;5127918;27;20078;-65
2022/07/22 05:17:12;;;;;;;14.23;4.47;;;16.20;99.90;;;;;;5142281;27;20075;-65
2022/07/22 05:19:39;;;;;;;9.77;4.25;;;16.20;99.90;;;;;;5150196;27;20132;-65
2022/07/22 05:22:07;;;;;;;11.52;4.18;;;16.20;99.90;;;;;;5142709;27;20055;-65
2022/07/22 05:24:32;;;;;;;12.07;4.30;;;16.20;99.90;;;;;;5143508;27;20034;-65
2022/07/22 05:26:58;;;;;;;15.13;4.88;;;16.20;99.90;;;;;;5123448;27;20171;-65
2022/07/22 05:29:24;;;;;;;6.22;4.20;;;16.20;99.90;;;;;;5145139;27;20039;-65
2022/07/22 05:31:50;;;;;;;10.18;4.25;;;16.30;99.90;;;;;;5151150;27;20038;-65
2022/07/22 05:34:15;;;;;;;7.15;3.47;;;16.20;99.90;;;;;;5151574;27;20043;-65
2022/07/22 05:36:41;;;;;;;10.23;3.88;;;16.30;99.90;;;;;;5150526;27;20038;-65
2022/07/22 05:39:07;;;;;;;11.07;3.63;;;16.30;99.90;;;;;;5141789;27;20046;-65
2022/07/22 05:41:32;;;;;;;6.88;4.30;;;16.30;99.90;;;;;;5127579;27;20087;-65
2022/07/22 05:43:58;;;;;;;11.95;3.80;;;16.30;99.90;;;;;;5127961;27;20141;-65
2022/07/22 05:46:24;;;;;;;12.10;3.40;;;16.30;99.90;;;;;;5138100;27;20043;-65
2022/07/22 05:48:49;;;;;;;7.35;4.40;;;16.30;99.90;;;;;;5148304;27;20043;-65
2022/07/22 05:51:15;;;;;;;16.02;4.32;;;16.40;99.90;;;;;;5140744;27;20035;-65
2022/07/22 05:53:42;;;;;;;10.05;4.25;;;16.40;99.90;;;;;;5145292;27;20042;-65
2022/07/22 05:56:10;;;;;;;10.30;3.90;;;16.40;99.90;;;;;;5142960;27;20038;-65
2022/07/22 05:58:37;;;;;;;13.20;4.38;;;16.50;99.90;;;;;;5138862;27;20063;-65
2022/07/22 06:01:03;;;;;;;10.05;4.18;;;16.50;99.90;;;;;;5139607;27;20044;-65
2022/07/22 06:03:28;;;;;;;12.32;4.60;;;16.50;99.90;;;;;;5128417;27;20043;-65
2022/07/22 06:05:54;;;;;;;8.98;4.45;;;16.60;99.90;;;;;;5148955;27;20043;-65
2022/07/22 06:08:20;;;;;;;8.85;4.28;;;16.60;99.90;;;;;;5139894;27;20380;-65
2022/07/22 06:10:45;;;;;;;11.20;3.78;;;16.60;99.90;;;;;;5141090;27;20045;-65
2022/07/22 06:13:11;;;;;;;14.85;4.22;;;16.60;99.90;;;;;;5120930;27;20098;-65
2022/07/22 06:15:37;;;;;;;14.50;4.50;;;16.60;99.90;;;;;;5146330;27;20500;-65
2022/07/22 06:18:02;;;;;;;12.73;3.88;;;16.60;99.90;;;;;;5140830;27;20042;-65
2022/07/22 06:20:28;;;;;;;7.07;3.75;;;16.60;99.90;;;;;;5138120;27;20031;-64
2022/07/22 06:22:53;;;;;;;8.82;3.22;;;16.70;99.90;;;;;;5141044;27;20038;-65
2022/07/22 06:25:19;;;;;;;17.45;5.35;;;16.70;99.90;;;;;;5140892;27;20125;-65
2022/07/22 06:27:45;;;;;;;7.43;4.07;;;16.70;99.90;;;;;;5137968;27;20047;-65
2022/07/22 06:30:11;;;;;;;7.65;3.40;;;16.70;99.90;;;;;;5138778;27;20051;-65
2022/07/22 06:32:37;;;;;;;5.85;3.53;;;16.80;99.90;;;;;;5139308;27;20047;-65
2022/07/22 06:35:05;;;;;;;7.78;3.25;;;16.80;99.90;;;;;;5141330;27;20051;-65
2022/07/22 06:37:30;;;;;;;5.53;3.10;;;16.80;99.90;;;;;;5141823;27;20050;-65
2022/07/22 06:39:56;;;;;;;6.07;3.45;;;16.90;99.90;;;;;;5136585;27;20403;-65
2022/07/22 06:42:22;;;;;;;9.10;3.78;;;16.90;99.90;;;;;;5140901;27;20045;-65
2022/07/22 06:44:48;;;;;;;11.05;4.13;;;16.90;99.90;;;;;;5137349;27;20038;-65
2022/07/22 06:47:14;;;;;;;7.88;3.10;;;17.00;99.90;;;;;;5140030;27;20048;-65
2022/07/22 06:49:40;;;;;;;7.55;3.40;;;17.00;99.90;;;;;;5135541;27;20042;-65
2022/07/22 06:52:05;;;;;;;8.02;3.63;;;17.10;99.90;;;;;;5140999;27;20039;-65
2022/07/22 06:54:31;;;;;;;11.63;3.92;;;17.10;99.90;;;;;;5138363;27;20512;-65
2022/07/22 06:56:57;;;;;;;6.43;4.00;;;17.10;99.90;;;;;;5141260;27;20043;-65
2022/07/22 06:59:24;;;;;;;9.73;3.97;;;17.10;99.90;;;;;;5139629;27;20051;-65
2022/07/22 07:01:50;;;;;;;5.82;3.55;;;17.20;99.90;;;;;;5139594;27;20054;-65
2022/07/22 07:04:16;;;;;;;13.13;3.40;;;17.20;99.90;;;;;;5142524;27;20035;-65
2022/07/22 07:06:42;;;;;;;11.60;3.72;;;17.20;99.90;;;;;;5138176;27;20089;-65
2022/07/22 07:09:07;;;;;;;15.20;4.18;;;17.30;99.90;;;;;;5139423;27;20503;-64
2022/07/22 07:11:34;;;;;;;10.77;4.10;;;17.30;99.90;;;;;;5144469;27;20096;-64
2022/07/22 07:14:00;;;;;;;10.82;3.75;;;17.40;99.90;;;;;;5115906;27;20403;-65
2022/07/22 07:16:25;;;;;;;10.07;3.30;;;17.40;99.90;;;;;;5138509;27;20039;-64
2022/07/22 07:18:51;;;;;;;7.15;3.17;;;17.40;99.90;;;;;;5141389;27;20053;-64
2022/07/22 07:21:17;;;;;;;9.10;3.88;;;17.40;99.90;;;;;;5142610;27;20031;-64
2022/07/22 07:23:43;;;;;;;7.80;3.33;;;17.50;99.90;;;;;;5140507;27;20034;-64
2022/07/22 07:26:09;;;;;;;9.25;4.07;;;17.60;99.90;;;;;;5133537;27;20039;-64
2022/07/22 07:28:34;;;;;;;12.07;3.65;;;17.60;99.90;;;;;;5138664;27;20047;-65
2022/07/22 07:31:01;;;;;;;11.40;3.88;;;17.70;99.90;;;;;;5146632;27;20038;-65
2022/07/22 07:33:26;;;;;;;8.27;3.97;;;17.70;99.90;;;;;;5141922;27;21072;-65
2022/07/22 07:35:52;;;;;;;7.32;3.40;;;17.80;99.90;;;;;;5142884;27;20156;-65
2022/07/22 07:38:18;;;;;;;12.70;4.63;;;17.90;99.90;;;;;;5146682;27;20043;-64
2022/07/22 07:40:44;;;;;;;15.30;4.28;;;17.90;99.90;;;;;;5137139;27;20518;-65
2022/07/22 07:43:09;;;;;;;6.85;3.03;;;18.00;99.90;;;;;;5123058;27;20068;-65
2022/07/22 07:45:36;;;;;;;18.33;4.18;;;18.00;99.90;;;;;;5121532;27;20055;-64
2022/07/22 07:48:03;;;;;;;3.85;2.90;;;18.10;99.90;;;;;;5140209;27;20062;-65
2022/07/22 07:50:29;;;;;;;6.50;3.33;;;18.10;99.90;;;;;;5144339;27;20046;-65
2022/07/22 07:52:55;;;;;;;6.20;3.22;;;18.20;99.90;;;;;;5141380;27;20039;-64
2022/07/22 07:55:21;;;;;;;6.25;3.33;;;18.20;99.90;;;;;;5139037;27;20038;-65
2022/07/22 07:57:51;;;;;;;8.23;3.83;;;18.30;99.90;;;;;;5123841;27;20403;-64
2022/07/22 08:00:20;;;;;;;7.80;3.30;;;18.30;99.90;;;;;;5139137;27;20126;-64
2022/07/22 08:02:46;;;;;;;16.17;4.00;;;18.30;99.90;;;;;;5132510;27;20047;-64
2022/07/22 08:05:12;;;;;;;6.85;3.75;;;18.40;99.90;;;;;;5135451;27;20039;-64
2022/07/22 08:07:38;;;;;;;14.82;3.55;;;18.40;99.90;;;;;;5137600;27;20046;-64
2022/07/22 08:10:08;;;;;;;8.52;3.53;;;18.40;99.90;;;;;;5134148;27;20030;-64
2022/07/22 08:12:33;;;;;;;12.82;3.42;;;18.40;99.90;;;;;;5131186;27;20424;-64
2022/07/22 08:14:59;;;;;;;6.30;3.50;;;18.40;99.90;;;;;;5141599;27;20044;-64
2022/07/22 08:17:25;;;;;;;5.85;3.40;;;18.40;99.90;;;;;;5131876;27;20104;-64
2022/07/22 08:19:50;;;;;;;11.07;3.58;;;18.50;99.90;;;;;;5139398;27;20325;-63
2022/07/22 08:22:16;;;;;;;7.40;3.13;;;18.50;99.90;;;;;;5138313;27;20103;-64
2022/07/22 08:24:42;;;;;;;7.72;3.67;;;18.50;99.90;;;;;;5140034;27;20075;-64
2022/07/22 08:27:08;;;;;;;7.43;3.33;;;18.50;99.90;;;;;;5144568;27;20037;-64
2022/07/22 08:29:33;;;;;;;9.00;3.03;;;18.50;99.90;;;;;;5137407;27;20578;-64
2022/07/22 08:31:59;;;;;;;5.85;3.15;;;18.50;99.90;;;;;;5142596;27;20502;-64
2022/07/22 08:34:24;;;;;;;8.27;2.90;;;18.50;99.90;;;;;;5144018;27;20035;-64
2022/07/22 08:36:50;;;;;;;5.82;3.15;;;18.50;99.90;;;;;;5139821;27;20423;-64
2022/07/22 08:39:22;;;;;;;10.10;3.70;;;18.60;99.90;;;;;;5146386;27;20436;-68
2022/07/22 08:42:00;;;;;;;4.65;2.90;;;18.60;99.90;;;;;;5124083;27;20060;-73
2022/07/22 08:44:29;;;;;;;8.15;3.42;;;18.70;99.90;;;;;;5118743;27;20050;-73
2022/07/22 08:46:55;;;;;;;3.25;2.30;;;18.60;99.90;;;;;;5121589;27;20525;-73
2022/07/22 08:49:21;;;;;;;10.00;3.22;;;18.60;99.90;;;;;;5124510;27;20035;-74
2022/07/22 08:51:47;;;;;;;5.78;2.67;;;18.60;99.90;;;;;;5121136;27;20499;-74
2022/07/22 08:54:12;;;;;;;7.00;2.97;;;18.60;99.90;;;;;;5119478;27;20122;-74
2022/07/22 08:56:39;;;;;;;6.72;3.22;;;18.70;99.90;;;;;;5121380;27;20877;-73
2022/07/22 08:59:05;;;;;;;6.90;3.30;;;18.70;99.90;;;;;;5121537;27;20058;-74
2022/07/22 09:01:31;;;;;;;5.72;2.63;;;18.70;99.90;;;;;;5121036;27;20053;-73
2022/07/22 09:03:58;;;;;;;6.38;3.25;;;18.80;99.90;;;;;;5125178;27;20051;-72
2022/07/22 09:06:27;;;;;;;2.92;1.83;;;18.80;99.90;;;;;;5121023;27;20051;-73
2022/07/22 09:08:59;;;;;;;6.15;2.80;;;18.80;99.90;;;;;;5127473;27;20127;-73
2022/07/22 09:11:28;;;;;;;2.70;2.50;;;18.80;99.90;;;;;;5133955;27;20051;-73
2022/07/22 09:13:55;;;;;;;4.32;2.72;;;18.90;99.90;;;;;;5122241;27;20119;-73
2022/07/22 09:16:40;;;;;;;9.40;3.10;;;18.90;99.90;;;;;;5129318;27;20412;-73
2022/07/22 09:19:05;;;;;;;4.25;2.42;;;18.80;99.90;;;;;;5114813;27;20047;-73
2022/07/22 09:21:31;;;;;;;9.27;2.83;;;18.80;99.90;;;;;;5114833;27;20081;-74
2022/07/22 09:23:57;;;;;;;6.65;2.92;;;18.80;99.90;;;;;;5117902;27;20043;-73
2022/07/22 09:26:53;;;;;;;6.82;3.10;;;18.80;99.90;;;;;;5135037;27;20095;-72
2022/07/22 09:29:19;;;;;;;5.07;3.10;;;18.90;99.90;;;;;;5139060;27;20051;-72
2022/07/22 09:31:50;;;;;;;5.70;2.83;;;18.90;99.90;;;;;;5128552;27;20149;-70
2022/07/22 09:34:28;;;;;;;3.72;2.17;;;18.80;99.90;;;;;;5128083;27;20038;-70
2022/07/22 09:36:55;;;;;;;4.55;2.83;;;18.80;99.90;;;;;;5127626;27;20049;-72
2022/07/22 09:39:28;;;;;;;5.35;3.30;;;18.80;99.90;;;;;;5127146;27;20050;-72
2022/07/22 09:42:05;;;;;;;4.60;3.50;;;18.80;99.90;;;;;;5124494;27;20495;-72
2022/07/22 09:44:31;;;;;;;2.90;2.58;;;18.80;99.90;;;;;;5126515;27;20055;-72
2022/07/22 09:46:57;;;;;;;5.57;2.80;;;18.80;99.90;;;;;;5125435;27;20053;-72
2022/07/22 09:49:34;;;;;;;5.93;3.08;;;18.80;99.90;;;;;;5123646;27;20043;-72
2022/07/22 09:52:01;;;;;;;5.28;3.63;;;18.90;99.90;;;;;;5141345;27;20039;-72
2022/07/22 09:54:29;;;;;;;4.22;2.50;;;18.90;99.90;;;;;;5124723;27;20118;-72
2022/07/22 09:56:55;;;;;;;5.72;2.83;;;18.90;99.90;;;;;;5123968;27;20120;-71
2022/07/22 09:59:21;;;;;;;5.82;3.63;;;18.90;99.90;;;;;;5121224;27;20059;-71
2022/07/22 10:01:49;;;;;;;6.03;2.97;;;18.90;99.90;;;;;;5124936;27;20495;-73
2022/07/22 10:04:19;;;;;;;8.82;2.90;;;19.00;99.90;;;;;;5120937;27;20050;-72
2022/07/22 10:06:45;;;;;;;4.32;2.75;;;19.00;99.90;;;;;;5125332;27;20491;-71
2022/07/22 10:09:13;;;;;;;3.70;2.80;;;19.10;99.90;;;;;;5125462;27;20981;-72
2022/07/22 10:11:44;;;;;;;8.32;3.78;;;19.00;99.90;;;;;;5131629;27;20085;-72
2022/07/22 10:14:11;;;;;;;10.23;3.38;;;19.10;99.90;;;;;;5127461;27;20047;-72
2022/07/22 10:16:38;;;;;;;6.67;3.13;;;19.10;99.90;;;;;;5124709;27;20122;-72
2022/07/22 10:19:03;;;;;;;4.15;3.15;;;19.00;99.90;;;;;;5116216;27;20042;-73
2022/07/22 10:21:33;;;;;;;7.40;3.38;;;19.00;99.90;;;;;;5120103;27;20112;-72
2022/07/22 10:24:13;;;;;;;4.57;2.80;;;19.00;99.90;;;;;;5121794;27;20122;-73
2022/07/22 10:26:49;;;;;;;7.97;3.60;;;18.90;99.90;;;;;;5129073;27;20046;-73
2022/07/22 10:29:35;;;;;;;3.92;2.92;;;18.90;99.90;;;;;;5127499;27;20061;-73
2022/07/22 10:32:16;;;;;;;6.78;3.53;;;19.00;99.90;;;;;;5120823;27;20142;-72
2022/07/22 10:34:57;;;;;;;3.85;3.40;;;19.00;99.90;;;;;;5118270;27;20125;-72
2022/07/22 10:37:34;;;;;;;9.60;3.60;;;19.00;99.90;;;;;;5117747;27;20067;-73
2022/07/22 10:40:22;;;;;;;5.30;3.42;;;19.00;99.90;;;;;;5124311;27;20042;-72
2022/07/22 10:43:00;;;;;;;;;;;19.00;99.90;;;;;;5129411;27;20499;-73
2022/07/22 10:45:26;;;;;;;;;;;18.90;99.90;;;;;;5120009;27;19966;-72
2022/07/22 10:47:54;;;;;;;7.47;2.95;;;18.90;99.90;;;;;;5124051;27;20418;-73
2022/07/22 10:50:35;;;;;;;4.78;3.00;;;19.00;99.90;;;;;;5124624;27;20055;-72
2022/07/22 10:53:07;;;;;;;10.85;3.40;;;19.00;99.90;;;;;;5125305;27;20583;-72
2022/07/22 10:55:34;;;;;;;7.60;3.45;;;19.10;99.90;;;;;;5128226;27;20077;-72
2022/07/22 10:58:20;;;;;;;5.85;3.63;;;19.20;99.90;;;;;;5123404;27;20053;-73
2022/07/22 11:01:19;;;;;;;6.00;3.10;;;19.20;99.90;;;;;;5117966;27;20082;-73
2022/07/22 11:03:47;;;;;;;3.95;2.67;;;19.30;99.90;;;;;;5129440;27;20389;-73
2022/07/22 11:06:29;;;;;;;6.13;3.25;;;19.30;99.90;;;;;;5127122;27;20047;-73
2022/07/22 11:09:04;;;;;;;7.40;2.80;;;19.30;99.90;;;;;;5131435;27;20046;-73
2022/07/22 11:11:41;;;;;;;7.50;3.78;;;19.30;99.90;;;;;;5125400;27;20091;-73
2022/07/22 11:14:28;;;;;;;3.92;3.25;;;19.40;99.90;;;;;;5121887;27;20103;-74
2022/07/22 11:17:05;;;;;;;3.58;2.88;;;19.40;99.90;;;;;;5114701;27;20047;-74
2022/07/22 11:19:32;;;;;;;12.90;3.67;;;19.40;99.90;;;;;;5139619;27;20043;-73
2022/07/22 11:22:04;;;;;;;8.52;3.95;;;19.40;99.90;;;;;;5103174;27;20050;-73
2022/07/22 11:24:33;;;;;;;5.25;3.30;;;19.50;99.90;;;;;;5121148;27;20051;-73
2022/07/22 11:27:12;;;;;;;9.32;3.70;;;19.50;99.90;;;;;;5122566;27;20123;-74
2022/07/22 11:29:41;;;;;;;8.27;3.42;;;19.50;99.90;;;;;;5120867;27;22133;-73
2022/07/22 11:32:09;;;;;;;7.53;3.83;;;19.40;99.90;;;;;;5118967;27;20054;-73
2022/07/22 11:34:45;;;;;;;6.95;3.60;;;19.50;99.90;;;;;;5124018;27;20047;-73
2022/07/22 11:37:11;;;;;;;5.40;3.72;;;19.50;99.90;;;;;;5117905;27;20047;-74
2022/07/22 11:39:37;;;;;;;11.50;4.03;;;19.50;99.90;;;;;;5128023;27;20042;-73
2022/07/22 11:42:03;;;;;;;11.15;4.03;;;19.40;99.90;;;;;;5120769;27;20086;-74
2022/07/22 11:44:32;;;;;;;2.72;2.53;;;19.40;99.90;;;;;;5121193;27;20043;-73
2022/07/22 11:46:59;;;;;;;6.82;3.78;;;19.30;99.90;;;;;;5127436;27;20054;-74
2022/07/22 11:49:30;;;;;;;10.75;3.42;;;19.40;99.90;;;;;;5102931;27;20039;-73
2022/07/22 11:51:56;;;;;;;6.07;2.92;;;19.30;99.90;;;;;;5126212;27;20151;-73
2022/07/22 11:54:22;;;;;;;7.20;3.00;;;19.40;99.90;;;;;;5121501;27;20046;-74
2022/07/22 11:56:48;;;;;;;4.10;2.20;;;19.30;99.90;;;;;;5124146;27;20122;-74
2022/07/22 11:59:17;;;;;;;5.15;2.25;;;19.30;99.90;;;;;;5119138;27;20095;-74
2022/07/22 12:01:44;;;;;;;7.03;3.15;;;19.30;99.90;;;;;;5125849;27;20466;-73
2022/07/22 12:04:19;;;;;;;11.15;3.20;;;19.40;99.90;;;;;;5118361;27;20047;-74
2022/07/22 12:06:46;;;;;;;6.90;3.20;;;19.30;99.90;;;;;;5115605;27;20057;-74
2022/07/22 12:09:20;;;;;;;10.05;3.30;;;19.30;99.90;;;;;;5122135;27;20076;-73
2022/07/22 12:11:48;;;;;;;3.80;2.55;;;19.30;99.90;;;;;;5110915;27;20042;-73
2022/07/22 12:14:21;;;;;;;;;;;19.30;99.90;;;;;;5121400;27;20038;-73
2022/07/22 12:17:01;;;;;;;3.70;1.90;;;19.20;99.90;;;;;;5119495;27;19960;-74
2022/07/22 12:19:29;;;;;;;6.88;2.50;;;19.20;99.90;;;;;;5123475;27;20039;-73
2022/07/22 12:22:04;;;;;;;2.60;2.13;;;19.30;99.90;;;;;;5120314;27;20043;-73
2022/07/22 12:24:44;;;;;;;3.17;2.20;;;19.30;99.90;;;;;;5100769;27;20407;-72
2022/07/22 12:27:13;;;;;;;3.53;2.42;;;19.30;99.90;;;;;;5117648;27;20054;-72
2022/07/22 12:29:38;;;;;;;4.05;2.33;;;19.40;99.90;;;;;;5119315;27;20444;-73
2022/07/22 12:32:10;;;;;;;4.63;2.30;;;19.50;99.90;;;;;;5123926;27;20043;-73
2022/07/22 12:34:43;;;;;;;3.70;2.40;;;19.50;99.90;;;;;;5121657;27;20051;-73
2022/07/22 12:37:12;;;;;;;4.05;2.28;;;19.40;99.90;;;;;;5121596;27;20043;-73
2022/07/22 12:39:38;;;;;;;9.13;2.92;;;19.40;99.90;;;;;;5128023;27;20678;-73
2022/07/22 12:42:16;;;;;;;8.20;2.65;;;19.40;99.90;;;;;;5122132;27;20484;-73
2022/07/22 12:44:59;;;;;;;4.30;2.60;;;19.50;99.90;;;;;;5119141;27;20053;-73